sensor_id;sensor_type;location;lat;lon;timestamp;P1;durP1;ratioP1;P2;durP2;ratioP2
48809;SDS011;40070;47.322;18.784;2023-04-15T00:01:47;3.42;;;1.81;;
48809;SDS011;40070;47.322;18.784;2023-04-15T00:03:49;3.48;;;1.71;;
48809;SDS011;40070;47.322;18.784;2023-04-15T00:05:49;2.75;;;1.34;;
48809;SDS011;40070;47.322;18.784;2023-04-15T00:07:50;3.26;;;1.43;;
48809;SDS011;40070;47.322;18.784;2023-04-15T00:09:51;4.42;;;2.21;;
48809;SDS011;40070;47.322;18.784;2023-04-15T00:11:52;4.68;;;1.73;;
48809;SDS011;40070;47.322;18.784;2023-04-15T00:13:53;6.52;;;2.01;;
48809;SDS011;40070;47.322;18.784;2023-04-15T00:15:54;3.21;;;1.54;;
48809;SDS011;40070;47.322;18.784;2023-04-15T00:17:55;4.03;;;1.83;;
48809;SDS011;40070;47.322;18.784;2023-04-15T00:19:56;3.15;;;1.54;;
48809;SDS011;40070;47.322;18.784;2023-04-15T00:21:56;2.90;;;1.45;;
48809;SDS011;40070;47.322;18.784;2023-04-15T00:23:58;5.11;;;1.84;;
48809;SDS011;40070;47.322;18.784;2023-04-15T00:25:58;3.19;;;1.45;;
48809;SDS011;40070;47.322;18.784;2023-04-15T00:27:59;3.36;;;1.65;;
48809;SDS011;40070;47.322;18.784;2023-04-15T00:30:00;2.82;;;1.35;;
48809;SDS011;40070;47.322;18.784;2023-04-15T00:32:01;2.81;;;1.26;;
48809;SDS011;40070;47.322;18.784;2023-04-15T00:34:02;5.96;;;1.64;;
48809;SDS011;40070;47.322;18.784;2023-04-15T00:36:03;5.55;;;1.84;;
48809;SDS011;40070;47.322;18.784;2023-04-15T00:38:04;5.84;;;1.64;;
48809;SDS011;40070;47.322;18.784;2023-04-15T00:40:06;3.04;;;1.44;;
48809;SDS011;40070;47.322;18.784;2023-04-15T00:42:06;3.04;;;1.54;;
48809;SDS011;40070;47.322;18.784;2023-04-15T00:44:07;2.95;;;1.35;;
48809;SDS011;40070;47.322;18.784;2023-04-15T00:46:08;3.52;;;1.74;;
48809;SDS011;40070;47.322;18.784;2023-04-15T00:48:11;3.32;;;1.64;;
48809;SDS011;40070;47.322;18.784;2023-04-15T00:50:12;3.60;;;1.74;;
48809;SDS011;40070;47.322;18.784;2023-04-15T00:52:13;3.51;;;1.74;;
48809;SDS011;40070;47.322;18.784;2023-04-15T00:54:13;3.35;;;1.84;;
48809;SDS011;40070;47.322;18.784;2023-04-15T00:56:15;3.17;;;1.64;;
48809;SDS011;40070;47.322;18.784;2023-04-15T00:58:16;4.25;;;1.84;;
48809;SDS011;40070;47.322;18.784;2023-04-15T01:00:18;3.27;;;1.45;;
48809;SDS011;40070;47.322;18.784;2023-04-15T01:02:19;4.00;;;1.84;;
48809;SDS011;40070;47.322;18.784;2023-04-15T01:04:20;6.15;;;1.94;;
48809;SDS011;40070;47.322;18.784;2023-04-15T01:06:21;3.12;;;1.65;;
48809;SDS011;40070;47.322;18.784;2023-04-15T01:08:28;3.38;;;1.75;;
48809;SDS011;40070;47.322;18.784;2023-04-15T01:10:23;3.65;;;2.14;;
48809;SDS011;40070;47.322;18.784;2023-04-15T01:12:25;3.40;;;1.46;;
48809;SDS011;40070;47.322;18.784;2023-04-15T01:14:27;3.83;;;1.85;;
48809;SDS011;40070;47.322;18.784;2023-04-15T01:16:27;4.84;;;2.34;;
48809;SDS011;40070;47.322;18.784;2023-04-15T01:18:32;4.11;;;2.14;;
48809;SDS011;40070;47.322;18.784;2023-04-15T01:20:33;4.65;;;2.14;;
48809;SDS011;40070;47.322;18.784;2023-04-15T01:22:34;4.60;;;1.95;;
48809;SDS011;40070;47.322;18.784;2023-04-15T01:24:39;5.28;;;2.43;;
48809;SDS011;40070;47.322;18.784;2023-04-15T01:26:41;3.31;;;1.75;;
48809;SDS011;40070;47.322;18.784;2023-04-15T01:28:41;3.84;;;1.85;;
48809;SDS011;40070;47.322;18.784;2023-04-15T01:30:42;4.03;;;2.04;;
48809;SDS011;40070;47.322;18.784;2023-04-15T01:32:43;4.60;;;2.23;;
48809;SDS011;40070;47.322;18.784;2023-04-15T01:34:44;3.89;;;2.23;;
48809;SDS011;40070;47.322;18.784;2023-04-15T01:36:45;3.74;;;1.75;;
48809;SDS011;40070;47.322;18.784;2023-04-15T01:38:46;5.33;;;1.94;;
48809;SDS011;40070;47.322;18.784;2023-04-15T01:40:47;3.30;;;1.46;;
48809;SDS011;40070;47.322;18.784;2023-04-15T01:42:48;3.57;;;1.75;;
48809;SDS011;40070;47.322;18.784;2023-04-15T01:44:49;4.64;;;2.23;;
48809;SDS011;40070;47.322;18.784;2023-04-15T01:46:50;3.30;;;1.36;;
48809;SDS011;40070;47.322;18.784;2023-04-15T01:48:51;3.84;;;1.75;;
48809;SDS011;40070;47.322;18.784;2023-04-15T01:50:53;3.55;;;1.65;;
48809;SDS011;40070;47.322;18.784;2023-04-15T01:52:52;4.08;;;1.65;;
48809;SDS011;40070;47.322;18.784;2023-04-15T01:54:53;2.94;;;1.46;;
48809;SDS011;40070;47.322;18.784;2023-04-15T01:56:54;3.11;;;1.36;;
48809;SDS011;40070;47.322;18.784;2023-04-15T01:58:55;3.21;;;1.55;;
48809;SDS011;40070;47.322;18.784;2023-04-15T02:00:56;3.57;;;1.75;;
48809;SDS011;40070;47.322;18.784;2023-04-15T02:02:57;5.28;;;1.46;;
48809;SDS011;40070;47.322;18.784;2023-04-15T02:04:58;3.74;;;1.84;;
48809;SDS011;40070;47.322;18.784;2023-04-15T02:06:59;4.34;;;1.74;;
48809;SDS011;40070;47.322;18.784;2023-04-15T02:09:00;3.45;;;1.74;;
48809;SDS011;40070;47.322;18.784;2023-04-15T02:11:01;3.10;;;1.55;;
48809;SDS011;40070;47.322;18.784;2023-04-15T02:13:02;4.01;;;1.85;;
48809;SDS011;40070;47.322;18.784;2023-04-15T02:15:03;3.66;;;1.85;;
48809;SDS011;40070;47.322;18.784;2023-04-15T02:17:04;3.27;;;1.55;;
48809;SDS011;40070;47.322;18.784;2023-04-15T02:19:04;3.91;;;1.75;;
48809;SDS011;40070;47.322;18.784;2023-04-15T02:21:05;3.46;;;1.45;;
48809;SDS011;40070;47.322;18.784;2023-04-15T02:23:06;3.82;;;1.36;;
48809;SDS011;40070;47.322;18.784;2023-04-15T02:25:07;4.86;;;1.94;;
48809;SDS011;40070;47.322;18.784;2023-04-15T02:27:09;4.21;;;1.64;;
48809;SDS011;40070;47.322;18.784;2023-04-15T02:29:10;5.03;;;1.93;;
48809;SDS011;40070;47.322;18.784;2023-04-15T02:31:11;3.01;;;1.55;;
48809;SDS011;40070;47.322;18.784;2023-04-15T02:33:12;3.46;;;1.55;;
48809;SDS011;40070;47.322;18.784;2023-04-15T02:35:13;4.82;;;1.75;;
48809;SDS011;40070;47.322;18.784;2023-04-15T02:37:14;3.67;;;1.46;;
48809;SDS011;40070;47.322;18.784;2023-04-15T02:39:15;3.64;;;1.84;;
48809;SDS011;40070;47.322;18.784;2023-04-15T02:41:15;3.48;;;1.75;;
48809;SDS011;40070;47.322;18.784;2023-04-15T02:43:16;4.82;;;1.94;;
48809;SDS011;40070;47.322;18.784;2023-04-15T02:45:17;4.12;;;2.24;;
48809;SDS011;40070;47.322;18.784;2023-04-15T02:47:18;4.36;;;1.94;;
48809;SDS011;40070;47.322;18.784;2023-04-15T02:49:20;3.72;;;1.94;;
48809;SDS011;40070;47.322;18.784;2023-04-15T02:51:20;3.12;;;1.65;;
48809;SDS011;40070;47.322;18.784;2023-04-15T02:53:21;3.39;;;2.04;;
48809;SDS011;40070;47.322;18.784;2023-04-15T02:55:22;4.77;;;1.95;;
48809;SDS011;40070;47.322;18.784;2023-04-15T02:57:23;4.66;;;2.34;;
48809;SDS011;40070;47.322;18.784;2023-04-15T02:59:24;4.42;;;2.05;;
48809;SDS011;40070;47.322;18.784;2023-04-15T03:01:25;5.32;;;2.15;;
48809;SDS011;40070;47.322;18.784;2023-04-15T03:03:29;3.60;;;1.75;;
48809;SDS011;40070;47.322;18.784;2023-04-15T03:05:30;4.41;;;1.85;;
48809;SDS011;40070;47.322;18.784;2023-04-15T03:07:31;4.59;;;2.05;;
48809;SDS011;40070;47.322;18.784;2023-04-15T03:09:32;6.09;;;2.04;;
48809;SDS011;40070;47.322;18.784;2023-04-15T03:11:34;4.08;;;1.84;;
48809;SDS011;40070;47.322;18.784;2023-04-15T03:13:34;4.38;;;2.43;;
48809;SDS011;40070;47.322;18.784;2023-04-15T03:15:36;4.67;;;2.14;;
48809;SDS011;40070;47.322;18.784;2023-04-15T03:17:37;4.60;;;2.24;;
48809;SDS011;40070;47.322;18.784;2023-04-15T03:19:37;5.80;;;3.22;;
48809;SDS011;40070;47.322;18.784;2023-04-15T03:21:38;6.70;;;3.52;;
48809;SDS011;40070;47.322;18.784;2023-04-15T03:23:39;7.32;;;3.32;;
48809;SDS011;40070;47.322;18.784;2023-04-15T03:25:40;5.42;;;2.83;;
48809;SDS011;40070;47.322;18.784;2023-04-15T03:27:41;6.05;;;2.54;;
48809;SDS011;40070;47.322;18.784;2023-04-15T03:29:42;7.22;;;2.83;;
48809;SDS011;40070;47.322;18.784;2023-04-15T03:31:43;4.60;;;2.34;;
48809;SDS011;40070;47.322;18.784;2023-04-15T03:33:44;5.50;;;2.54;;
48809;SDS011;40070;47.322;18.784;2023-04-15T03:35:45;4.36;;;2.23;;
48809;SDS011;40070;47.322;18.784;2023-04-15T03:37:46;4.30;;;2.14;;
48809;SDS011;40070;47.322;18.784;2023-04-15T03:39:46;4.13;;;2.24;;
48809;SDS011;40070;47.322;18.784;2023-04-15T03:41:47;5.67;;;2.05;;
48809;SDS011;40070;47.322;18.784;2023-04-15T03:43:48;4.41;;;2.05;;
48809;SDS011;40070;47.322;18.784;2023-04-15T03:45:49;4.85;;;2.24;;
48809;SDS011;40070;47.322;18.784;2023-04-15T03:47:50;4.13;;;2.24;;
48809;SDS011;40070;47.322;18.784;2023-04-15T03:49:51;6.19;;;2.24;;
48809;SDS011;40070;47.322;18.784;2023-04-15T03:51:52;4.40;;;2.24;;
48809;SDS011;40070;47.322;18.784;2023-04-15T03:53:53;4.61;;;2.44;;
48809;SDS011;40070;47.322;18.784;2023-04-15T03:55:54;4.42;;;2.44;;
48809;SDS011;40070;47.322;18.784;2023-04-15T03:57:55;4.15;;;1.95;;
48809;SDS011;40070;47.322;18.784;2023-04-15T03:59:56;4.24;;;2.05;;
48809;SDS011;40070;47.322;18.784;2023-04-15T04:01:56;3.94;;;1.95;;
48809;SDS011;40070;47.322;18.784;2023-04-15T04:03:57;3.94;;;1.75;;
48809;SDS011;40070;47.322;18.784;2023-04-15T04:05:58;3.67;;;1.75;;
48809;SDS011;40070;47.322;18.784;2023-04-15T04:07:59;4.39;;;2.53;;
48809;SDS011;40070;47.322;18.784;2023-04-15T04:10:01;5.83;;;2.73;;
48809;SDS011;40070;47.322;18.784;2023-04-15T04:12:01;5.32;;;2.52;;
48809;SDS011;40070;47.322;18.784;2023-04-15T04:14:02;5.58;;;2.42;;
48809;SDS011;40070;47.322;18.784;2023-04-15T04:16:03;5.29;;;2.32;;
48809;SDS011;40070;47.322;18.784;2023-04-15T04:18:04;5.92;;;2.61;;
48809;SDS011;40070;47.322;18.784;2023-04-15T04:20:05;4.39;;;2.32;;
48809;SDS011;40070;47.322;18.784;2023-04-15T04:22:07;4.20;;;2.41;;
48809;SDS011;40070;47.322;18.784;2023-04-15T04:24:08;5.26;;;2.61;;
48809;SDS011;40070;47.322;18.784;2023-04-15T04:26:09;4.05;;;2.03;;
48809;SDS011;40070;47.322;18.784;2023-04-15T04:28:10;4.39;;;2.32;;
48809;SDS011;40070;47.322;18.784;2023-04-15T04:30:11;4.74;;;2.61;;
48809;SDS011;40070;47.322;18.784;2023-04-15T04:32:11;5.34;;;2.41;;
48809;SDS011;40070;47.322;18.784;2023-04-15T04:34:12;6.67;;;2.40;;
48809;SDS011;40070;47.322;18.784;2023-04-15T04:36:13;4.44;;;2.02;;
48809;SDS011;40070;47.322;18.784;2023-04-15T04:38:14;6.80;;;2.31;;
48809;SDS011;40070;47.322;18.784;2023-04-15T04:40:15;4.30;;;1.83;;
48809;SDS011;40070;47.322;18.784;2023-04-15T04:42:16;4.99;;;2.41;;
48809;SDS011;40070;47.322;18.784;2023-04-15T04:44:17;5.60;;;2.70;;
48809;SDS011;40070;47.322;18.784;2023-04-15T04:46:18;4.29;;;2.02;;
48809;SDS011;40070;47.322;18.784;2023-04-15T04:48:19;5.01;;;2.70;;
48809;SDS011;40070;47.322;18.784;2023-04-15T04:50:20;4.93;;;2.42;;
48809;SDS011;40070;47.322;18.784;2023-04-15T04:52:21;3.79;;;2.13;;
48809;SDS011;40070;47.322;18.784;2023-04-15T04:54:22;4.70;;;2.33;;
48809;SDS011;40070;47.322;18.784;2023-04-15T04:56:22;4.16;;;2.42;;
48809;SDS011;40070;47.322;18.784;2023-04-15T04:58:23;4.99;;;2.51;;
48809;SDS011;40070;47.322;18.784;2023-04-15T05:00:24;5.76;;;2.21;;
48809;SDS011;40070;47.322;18.784;2023-04-15T05:02:25;4.13;;;2.32;;
48809;SDS011;40070;47.322;18.784;2023-04-15T05:04:26;4.70;;;2.21;;
48809;SDS011;40070;47.322;18.784;2023-04-15T05:06:27;4.17;;;2.02;;
48809;SDS011;40070;47.322;18.784;2023-04-15T05:08:28;4.27;;;2.21;;
48809;SDS011;40070;47.322;18.784;2023-04-15T05:10:29;5.63;;;2.59;;
48809;SDS011;40070;47.322;18.784;2023-04-15T05:12:30;4.36;;;2.02;;
48809;SDS011;40070;47.322;18.784;2023-04-15T05:14:31;4.72;;;2.60;;
48809;SDS011;40070;47.322;18.784;2023-04-15T05:16:31;5.33;;;2.79;;
48809;SDS011;40070;47.322;18.784;2023-04-15T05:18:33;4.82;;;2.70;;
48809;SDS011;40070;47.322;18.784;2023-04-15T05:20:34;5.55;;;2.71;;
48809;SDS011;40070;47.322;18.784;2023-04-15T05:22:35;6.60;;;3.57;;
48809;SDS011;40070;47.322;18.784;2023-04-15T05:24:36;6.59;;;3.38;;
48809;SDS011;40070;47.322;18.784;2023-04-15T05:26:37;6.95;;;3.67;;
48809;SDS011;40070;47.322;18.784;2023-04-15T05:28:38;5.81;;;3.07;;
48809;SDS011;40070;47.322;18.784;2023-04-15T05:30:39;7.63;;;3.82;;
48809;SDS011;40070;47.322;18.784;2023-04-15T05:32:40;8.18;;;3.35;;
48809;SDS011;40070;47.322;18.784;2023-04-15T05:34:41;5.69;;;3.35;;
48809;SDS011;40070;47.322;18.784;2023-04-15T05:36:42;6.57;;;3.62;;
48809;SDS011;40070;47.322;18.784;2023-04-15T05:38:43;9.13;;;4.08;;
48809;SDS011;40070;47.322;18.784;2023-04-15T05:40:43;5.43;;;3.33;;
48809;SDS011;40070;47.322;18.784;2023-04-15T05:42:44;7.33;;;4.10;;
48809;SDS011;40070;47.322;18.784;2023-04-15T05:44:45;7.02;;;3.82;;
48809;SDS011;40070;47.322;18.784;2023-04-15T05:46:46;9.73;;;4.31;;
48809;SDS011;40070;47.322;18.784;2023-04-15T05:48:47;7.98;;;4.32;;
48809;SDS011;40070;47.322;18.784;2023-04-15T05:50:48;5.97;;;3.45;;
48809;SDS011;40070;47.322;18.784;2023-04-15T05:52:49;5.63;;;3.07;;
48809;SDS011;40070;47.322;18.784;2023-04-15T05:54:50;5.85;;;3.35;;
48809;SDS011;40070;47.322;18.784;2023-04-15T05:56:51;5.83;;;3.08;;
48809;SDS011;40070;47.322;18.784;2023-04-15T05:58:52;5.59;;;3.08;;
48809;SDS011;40070;47.322;18.784;2023-04-15T06:00:53;5.80;;;3.07;;
48809;SDS011;40070;47.322;18.784;2023-04-15T06:02:54;6.01;;;3.06;;
48809;SDS011;40070;47.322;18.784;2023-04-15T06:04:54;5.38;;;3.17;;
48809;SDS011;40070;47.322;18.784;2023-04-15T06:06:55;4.44;;;2.41;;
48809;SDS011;40070;47.322;18.784;2023-04-15T06:08:56;5.69;;;2.70;;
48809;SDS011;40070;47.322;18.784;2023-04-15T06:10:57;4.66;;;2.41;;
48809;SDS011;40070;47.322;18.784;2023-04-15T06:12:58;5.79;;;2.70;;
48809;SDS011;40070;47.322;18.784;2023-04-15T06:14:59;5.59;;;2.89;;
48809;SDS011;40070;47.322;18.784;2023-04-15T06:17:00;6.61;;;3.09;;
48809;SDS011;40070;47.322;18.784;2023-04-15T06:19:01;7.87;;;3.50;;
48809;SDS011;40070;47.322;18.784;2023-04-15T06:21:02;8.45;;;3.98;;
48809;SDS011;40070;47.322;18.784;2023-04-15T06:23:03;6.62;;;3.11;;
48809;SDS011;40070;47.322;18.784;2023-04-15T06:25:04;5.32;;;2.62;;
48809;SDS011;40070;47.322;18.784;2023-04-15T06:27:04;5.84;;;3.10;;
48809;SDS011;40070;47.322;18.784;2023-04-15T06:29:05;3.89;;;2.32;;
48809;SDS011;40070;47.322;18.784;2023-04-15T06:31:06;4.82;;;2.14;;
48809;SDS011;40070;47.322;18.784;2023-04-15T06:33:07;4.62;;;2.62;;
48809;SDS011;40070;47.322;18.784;2023-04-15T06:35:08;4.00;;;2.23;;
48809;SDS011;40070;47.322;18.784;2023-04-15T06:37:09;5.33;;;1.94;;
48809;SDS011;40070;47.322;18.784;2023-04-15T06:39:10;3.59;;;1.85;;
48809;SDS011;40070;47.322;18.784;2023-04-15T06:41:11;4.50;;;1.95;;
48809;SDS011;40070;47.322;18.784;2023-04-15T06:43:12;5.52;;;1.76;;
48809;SDS011;40070;47.322;18.784;2023-04-15T06:45:13;3.93;;;1.75;;
48809;SDS011;40070;47.322;18.784;2023-04-15T06:47:14;3.51;;;1.95;;
48809;SDS011;40070;47.322;18.784;2023-04-15T06:49:15;3.03;;;1.55;;
48809;SDS011;40070;47.322;18.784;2023-04-15T06:51:16;4.15;;;1.85;;
48809;SDS011;40070;47.322;18.784;2023-04-15T06:53:17;2.87;;;1.36;;
48809;SDS011;40070;47.322;18.784;2023-04-15T06:55:18;3.23;;;1.56;;
48809;SDS011;40070;47.322;18.784;2023-04-15T06:57:19;3.09;;;1.27;;
48809;SDS011;40070;47.322;18.784;2023-04-15T06:59:20;2.99;;;1.47;;
48809;SDS011;40070;47.322;18.784;2023-04-15T07:01:23;3.33;;;1.36;;
48809;SDS011;40070;47.322;18.784;2023-04-15T07:03:23;3.45;;;1.56;;
48809;SDS011;40070;47.322;18.784;2023-04-15T07:05:24;2.44;;;1.37;;
48809;SDS011;40070;47.322;18.784;2023-04-15T07:07:25;2.92;;;1.37;;
48809;SDS011;40070;47.322;18.784;2023-04-15T07:09:26;3.02;;;1.47;;
48809;SDS011;40070;47.322;18.784;2023-04-15T07:11:27;2.74;;;1.27;;
48809;SDS011;40070;47.322;18.784;2023-04-15T07:13:29;2.74;;;1.18;;
48809;SDS011;40070;47.322;18.784;2023-04-15T07:15:29;3.57;;;1.57;;
48809;SDS011;40070;47.322;18.784;2023-04-15T07:17:30;3.49;;;1.08;;
48809;SDS011;40070;47.322;18.784;2023-04-15T07:19:30;2.31;;;1.18;;
48809;SDS011;40070;47.322;18.784;2023-04-15T07:21:31;2.85;;;1.28;;
48809;SDS011;40070;47.322;18.784;2023-04-15T07:23:32;2.66;;;1.37;;
48809;SDS011;40070;47.322;18.784;2023-04-15T07:25:33;2.57;;;1.08;;
48809;SDS011;40070;47.322;18.784;2023-04-15T07:27:34;2.30;;;0.88;;
48809;SDS011;40070;47.322;18.784;2023-04-15T07:29:35;2.76;;;1.18;;
48809;SDS011;40070;47.322;18.784;2023-04-15T07:31:36;2.95;;;1.28;;
48809;SDS011;40070;47.322;18.784;2023-04-15T07:33:37;2.21;;;1.08;;
48809;SDS011;40070;47.322;18.784;2023-04-15T07:35:38;2.40;;;1.18;;
48809;SDS011;40070;47.322;18.784;2023-04-15T07:37:39;1.94;;;0.79;;
48809;SDS011;40070;47.322;18.784;2023-04-15T07:39:40;1.84;;;0.98;;
48809;SDS011;40070;47.322;18.784;2023-04-15T07:41:41;1.85;;;0.88;;
48809;SDS011;40070;47.322;18.784;2023-04-15T07:43:42;2.78;;;0.98;;
48809;SDS011;40070;47.322;18.784;2023-04-15T07:45:43;2.04;;;0.99;;
48809;SDS011;40070;47.322;18.784;2023-04-15T07:47:44;2.61;;;0.99;;
48809;SDS011;40070;47.322;18.784;2023-04-15T07:49:45;3.27;;;0.89;;
48809;SDS011;40070;47.322;18.784;2023-04-15T07:51:46;2.33;;;1.09;;
48809;SDS011;40070;47.322;18.784;2023-04-15T07:53:47;2.05;;;0.89;;
48809;SDS011;40070;47.322;18.784;2023-04-15T07:55:47;1.40;;;0.79;;
48809;SDS011;40070;47.322;18.784;2023-04-15T07:57:48;2.51;;;0.99;;
48809;SDS011;40070;47.322;18.784;2023-04-15T07:59:49;1.70;;;0.69;;
48809;SDS011;40070;47.322;18.784;2023-04-15T08:01:50;2.26;;;0.89;;
48809;SDS011;40070;47.322;18.784;2023-04-15T08:03:52;1.68;;;0.79;;
48809;SDS011;40070;47.322;18.784;2023-04-15T08:05:52;2.14;;;1.09;;
48809;SDS011;40070;47.322;18.784;2023-04-15T08:07:53;3.31;;;0.69;;
48809;SDS011;40070;47.322;18.784;2023-04-15T08:09:54;1.98;;;0.79;;
48809;SDS011;40070;47.322;18.784;2023-04-15T08:11:55;3.39;;;0.89;;
48809;SDS011;40070;47.322;18.784;2023-04-15T08:13:56;2.08;;;0.79;;
48809;SDS011;40070;47.322;18.784;2023-04-15T08:16:17;2.18;;;0.79;;
48809;SDS011;40070;47.322;18.784;2023-04-15T08:17:58;1.60;;;0.79;;
48809;SDS011;40070;47.322;18.784;2023-04-15T08:19:59;2.17;;;0.79;;
48809;SDS011;40070;47.322;18.784;2023-04-15T08:22:00;1.89;;;0.89;;
48809;SDS011;40070;47.322;18.784;2023-04-15T08:24:02;2.18;;;0.89;;
48809;SDS011;40070;47.322;18.784;2023-04-15T08:26:02;1.99;;;1.09;;
48809;SDS011;40070;47.322;18.784;2023-04-15T08:28:03;1.80;;;0.79;;
48809;SDS011;40070;47.322;18.784;2023-04-15T08:30:05;2.54;;;0.99;;
48809;SDS011;40070;47.322;18.784;2023-04-15T08:32:06;2.83;;;0.99;;
48809;SDS011;40070;47.322;18.784;2023-04-15T08:34:07;2.18;;;1.19;;
48809;SDS011;40070;47.322;18.784;2023-04-15T08:36:08;1.71;;;0.79;;
48809;SDS011;40070;47.322;18.784;2023-04-15T08:38:08;1.24;;;0.60;;
48809;SDS011;40070;47.322;18.784;2023-04-15T08:40:10;3.44;;;0.69;;
48809;SDS011;40070;47.322;18.784;2023-04-15T08:42:15;2.00;;;0.79;;
48809;SDS011;40070;47.322;18.784;2023-04-15T08:44:17;2.67;;;0.79;;
48809;SDS011;40070;47.322;18.784;2023-04-15T08:46:18;1.70;;;0.79;;
48809;SDS011;40070;47.322;18.784;2023-04-15T08:48:24;1.42;;;0.59;;
48809;SDS011;40070;47.322;18.784;2023-04-15T08:50:25;2.84;;;1.09;;
48809;SDS011;40070;47.322;18.784;2023-04-15T08:52:29;2.90;;;1.09;;
48809;SDS011;40070;47.322;18.784;2023-04-15T08:54:30;2.73;;;1.09;;
48809;SDS011;40070;47.322;18.784;2023-04-15T08:56:33;1.80;;;0.69;;
48809;SDS011;40070;47.322;18.784;2023-04-15T08:58:34;1.80;;;0.69;;
48809;SDS011;40070;47.322;18.784;2023-04-15T09:00:36;0.95;;;0.50;;
48809;SDS011;40070;47.322;18.784;2023-04-15T09:02:37;1.04;;;0.69;;
48809;SDS011;40070;47.322;18.784;2023-04-15T09:04:38;1.23;;;0.59;;
48809;SDS011;40070;47.322;18.784;2023-04-15T09:06:42;2.00;;;0.89;;
48809;SDS011;40070;47.322;18.784;2023-04-15T09:08:43;1.90;;;0.69;;
48809;SDS011;40070;47.322;18.784;2023-04-15T09:10:44;2.55;;;0.99;;
48809;SDS011;40070;47.322;18.784;2023-04-15T09:12:45;2.07;;;0.99;;
48809;SDS011;40070;47.322;18.784;2023-04-15T09:14:46;2.35;;;1.09;;
48809;SDS011;40070;47.322;18.784;2023-04-15T09:16:57;2.62;;;1.09;;
48809;SDS011;40070;47.322;18.784;2023-04-15T09:19:19;1.85;;;0.79;;
48809;SDS011;40070;47.322;18.784;2023-04-15T09:21:13;1.93;;;0.79;;
48809;SDS011;40070;47.322;18.784;2023-04-15T09:23:15;1.93;;;0.79;;
48809;SDS011;40070;47.322;18.784;2023-04-15T09:25:25;2.46;;;0.69;;
48809;SDS011;40070;47.322;18.784;2023-04-15T09:27:17;1.93;;;0.79;;
48809;SDS011;40070;47.322;18.784;2023-04-15T09:29:18;1.39;;;0.59;;
48809;SDS011;40070;47.322;18.784;2023-04-15T09:31:28;1.02;;;0.49;;
48809;SDS011;40070;47.322;18.784;2023-04-15T09:33:27;2.31;;;0.89;;
48809;SDS011;40070;47.322;18.784;2023-04-15T09:35:27;1.65;;;0.98;;
48809;SDS011;40070;47.322;18.784;2023-04-15T09:37:34;1.66;;;0.89;;
48809;SDS011;40070;47.322;18.784;2023-04-15T09:39:49;1.47;;;0.69;;
48809;SDS011;40070;47.322;18.784;2023-04-15T09:41:31;0.93;;;0.59;;
48809;SDS011;40070;47.322;18.784;2023-04-15T09:43:39;0.74;;;0.49;;
48809;SDS011;40070;47.322;18.784;2023-04-15T09:45:46;1.03;;;0.59;;
48809;SDS011;40070;47.322;18.784;2023-04-15T09:47:53;0.93;;;0.39;;
48809;SDS011;40070;47.322;18.784;2023-04-15T09:49:55;2.14;;;0.69;;
48809;SDS011;40070;47.322;18.784;2023-04-15T09:52:03;1.18;;;0.59;;
48809;SDS011;40070;47.322;18.784;2023-04-15T09:54:05;0.92;;;0.59;;
48809;SDS011;40070;47.322;18.784;2023-04-15T09:56:06;1.28;;;0.59;;
48809;SDS011;40070;47.322;18.784;2023-04-15T09:58:08;0.83;;;0.49;;
48809;SDS011;40070;47.322;18.784;2023-04-15T10:00:09;1.58;;;0.49;;
48809;SDS011;40070;47.322;18.784;2023-04-15T10:02:11;1.95;;;0.59;;
48809;SDS011;40070;47.322;18.784;2023-04-15T10:04:12;1.01;;;0.49;;
48809;SDS011;40070;47.322;18.784;2023-04-15T10:06:13;1.02;;;0.49;;
48809;SDS011;40070;47.322;18.784;2023-04-15T10:08:16;1.66;;;0.79;;
48809;SDS011;40070;47.322;18.784;2023-04-15T10:10:16;1.10;;;0.49;;
48809;SDS011;40070;47.322;18.784;2023-04-15T10:12:18;1.02;;;0.49;;
48809;SDS011;40070;47.322;18.784;2023-04-15T10:14:19;1.76;;;0.69;;
48809;SDS011;40070;47.322;18.784;2023-04-15T10:16:22;1.85;;;0.98;;
48809;SDS011;40070;47.322;18.784;2023-04-15T10:18:26;2.12;;;0.88;;
48809;SDS011;40070;47.322;18.784;2023-04-15T10:20:24;2.66;;;1.08;;
48809;SDS011;40070;47.322;18.784;2023-04-15T10:22:25;2.47;;;0.98;;
48809;SDS011;40070;47.322;18.784;2023-04-15T10:24:29;2.10;;;0.98;;
48809;SDS011;40070;47.322;18.784;2023-04-15T10:26:29;3.03;;;1.18;;
48809;SDS011;40070;47.322;18.784;2023-04-15T10:28:30;2.67;;;0.98;;
48809;SDS011;40070;47.322;18.784;2023-04-15T10:30:34;1.38;;;0.69;;
48809;SDS011;40070;47.322;18.784;2023-04-15T10:32:33;2.02;;;0.79;;
48809;SDS011;40070;47.322;18.784;2023-04-15T10:34:34;0.73;;;0.49;;
48809;SDS011;40070;47.322;18.784;2023-04-15T10:36:36;0.92;;;0.49;;
48809;SDS011;40070;47.322;18.784;2023-04-15T10:39:01;1.37;;;0.69;;
48809;SDS011;40070;47.322;18.784;2023-04-15T10:41:16;1.93;;;0.88;;
48809;SDS011;40070;47.322;18.784;2023-04-15T10:43:04;2.27;;;0.88;;
48809;SDS011;40070;47.322;18.784;2023-04-15T10:45:15;1.38;;;0.59;;
48809;SDS011;40070;47.322;18.784;2023-04-15T10:47:17;2.11;;;0.69;;
48809;SDS011;40070;47.322;18.784;2023-04-15T10:49:24;1.18;;;0.68;;
48809;SDS011;40070;47.322;18.784;2023-04-15T10:51:29;1.27;;;0.59;;
48809;SDS011;40070;47.322;18.784;2023-04-15T10:53:29;1.27;;;0.59;;
48809;SDS011;40070;47.322;18.784;2023-04-15T10:55:34;1.00;;;0.59;;
48809;SDS011;40070;47.322;18.784;2023-04-15T10:57:39;1.18;;;0.68;;
48809;SDS011;40070;47.322;18.784;2023-04-15T11:01:49;1.17;;;0.58;;
48809;SDS011;40070;47.322;18.784;2023-04-15T11:03:44;1.53;;;0.58;;
48809;SDS011;40070;47.322;18.784;2023-04-15T11:05:52;0.90;;;0.59;;
48809;SDS011;40070;47.322;18.784;2023-04-15T11:07:58;2.41;;;0.97;;
48809;SDS011;40070;47.322;18.784;2023-04-15T11:12:34;1.16;;;0.58;;
48809;SDS011;40070;47.322;18.784;2023-04-15T11:14:29;1.43;;;0.78;;
48809;SDS011;40070;47.322;18.784;2023-04-15T11:16:30;1.75;;;0.77;;
48809;SDS011;40070;47.322;18.784;2023-04-15T11:18:53;1.70;;;0.87;;
48809;SDS011;40070;47.322;18.784;2023-04-15T11:20:48;2.06;;;0.88;;
48809;SDS011;40070;47.322;18.784;2023-04-15T11:22:52;1.08;;;0.78;;
48809;SDS011;40070;47.322;18.784;2023-04-15T11:24:55;1.38;;;0.79;;
48809;SDS011;40070;47.322;18.784;2023-04-15T11:26:56;1.91;;;1.08;;
48809;SDS011;40070;47.322;18.784;2023-04-15T11:28:58;1.82;;;0.68;;
48809;SDS011;40070;47.322;18.784;2023-04-15T11:31:06;1.55;;;0.78;;
48809;SDS011;40070;47.322;18.784;2023-04-15T11:33:02;1.56;;;0.78;;
48809;SDS011;40070;47.322;18.784;2023-04-15T11:35:02;1.57;;;0.79;;
48809;SDS011;40070;47.322;18.784;2023-04-15T11:37:04;1.76;;;0.89;;
48809;SDS011;40070;47.322;18.784;2023-04-15T11:39:05;1.94;;;0.88;;
48809;SDS011;40070;47.322;18.784;2023-04-15T11:41:05;2.46;;;1.08;;
48809;SDS011;40070;47.322;18.784;2023-04-15T11:43:13;2.09;;;0.88;;
48809;SDS011;40070;47.322;18.784;2023-04-15T11:45:11;1.19;;;0.69;;
48809;SDS011;40070;47.322;18.784;2023-04-15T11:47:23;2.55;;;0.68;;
48809;SDS011;40070;47.322;18.784;2023-04-15T11:49:24;1.74;;;0.88;;
48809;SDS011;40070;47.322;18.784;2023-04-15T11:51:13;1.73;;;0.78;;
48809;SDS011;40070;47.322;18.784;2023-04-15T11:53:40;1.28;;;0.69;;
48809;SDS011;40070;47.322;18.784;2023-04-15T11:55:46;1.75;;;0.79;;
48809;SDS011;40070;47.322;18.784;2023-04-15T11:57:40;2.31;;;1.08;;
48809;SDS011;40070;47.322;18.784;2023-04-15T11:59:41;1.20;;;0.59;;
48809;SDS011;40070;47.322;18.784;2023-04-15T12:01:42;1.10;;;0.59;;
48809;SDS011;40070;47.322;18.784;2023-04-15T12:03:51;1.65;;;0.78;;
48809;SDS011;40070;47.322;18.784;2023-04-15T12:06:08;1.65;;;0.69;;